sensor_id;sensor_type;location;lat;lon;timestamp;P1;durP1;ratioP1;P2;durP2;ratioP2
74100;SDS011;62462;52.530;21.682;2023-03-08T00:00:36;4.85;;;2.60;;
74100;SDS011;62462;52.530;21.682;2023-03-08T00:03:02;4.40;;;2.90;;
74100;SDS011;62462;52.530;21.682;2023-03-08T00:05:28;4.95;;;2.75;;
74100;SDS011;62462;52.530;21.682;2023-03-08T00:07:54;4.13;;;2.08;;
74100;SDS011;62462;52.530;21.682;2023-03-08T00:10:20;5.47;;;2.13;;
74100;SDS011;62462;52.530;21.682;2023-03-08T00:12:46;4.43;;;2.10;;
74100;SDS011;62462;52.530;21.682;2023-03-08T00:15:12;5.28;;;1.92;;
74100;SDS011;62462;52.530;21.682;2023-03-08T00:17:38;3.10;;;1.77;;
74100;SDS011;62462;52.530;21.682;2023-03-08T00:20:04;4.97;;;1.70;;
74100;SDS011;62462;52.530;21.682;2023-03-08T00:22:34;3.78;;;1.60;;
74100;SDS011;62462;52.530;21.682;2023-03-08T00:25:01;3.85;;;1.88;;
74100;SDS011;62462;52.530;21.682;2023-03-08T00:27:28;2.30;;;1.60;;
74100;SDS011;62462;52.530;21.682;2023-03-08T00:29:53;6.78;;;2.17;;
74100;SDS011;62462;52.530;21.682;2023-03-08T00:32:19;3.58;;;1.50;;
74100;SDS011;62462;52.530;21.682;2023-03-08T00:34:45;3.03;;;1.58;;
74100;SDS011;62462;52.530;21.682;2023-03-08T00:37:11;5.55;;;1.60;;
74100;SDS011;62462;52.530;21.682;2023-03-08T00:39:37;2.40;;;1.40;;
74100;SDS011;62462;52.530;21.682;2023-03-08T00:42:03;3.10;;;1.63;;
74100;SDS011;62462;52.530;21.682;2023-03-08T00:44:29;3.65;;;1.73;;
74100;SDS011;62462;52.530;21.682;2023-03-08T00:46:55;4.78;;;1.48;;
74100;SDS011;62462;52.530;21.682;2023-03-08T00:49:20;2.30;;;1.48;;
74100;SDS011;62462;52.530;21.682;2023-03-08T00:51:47;4.13;;;1.75;;
74100;SDS011;62462;52.530;21.682;2023-03-08T00:54:13;4.47;;;1.67;;
74100;SDS011;62462;52.530;21.682;2023-03-08T00:56:39;1.88;;;1.42;;
74100;SDS011;62462;52.530;21.682;2023-03-08T00:59:05;3.38;;;1.60;;
74100;SDS011;62462;52.530;21.682;2023-03-08T01:01:31;2.90;;;1.65;;
74100;SDS011;62462;52.530;21.682;2023-03-08T01:03:57;5.13;;;1.50;;
74100;SDS011;62462;52.530;21.682;2023-03-08T01:06:23;4.75;;;1.70;;
74100;SDS011;62462;52.530;21.682;2023-03-08T01:08:49;3.40;;;1.80;;
74100;SDS011;62462;52.530;21.682;2023-03-08T01:11:25;2.97;;;1.60;;
74100;SDS011;62462;52.530;21.682;2023-03-08T01:13:51;6.30;;;1.80;;
74100;SDS011;62462;52.530;21.682;2023-03-08T01:16:28;4.55;;;1.90;;
74100;SDS011;62462;52.530;21.682;2023-03-08T01:18:55;3.83;;;2.00;;
74100;SDS011;62462;52.530;21.682;2023-03-08T01:21:23;5.20;;;1.85;;
74100;SDS011;62462;52.530;21.682;2023-03-08T01:23:49;4.55;;;1.75;;
74100;SDS011;62462;52.530;21.682;2023-03-08T01:26:16;3.53;;;1.60;;
74100;SDS011;62462;52.530;21.682;2023-03-08T01:28:44;2.10;;;1.50;;
74100;SDS011;62462;52.530;21.682;2023-03-08T01:31:13;5.90;;;1.83;;
74100;SDS011;62462;52.530;21.682;2023-03-08T01:33:41;2.58;;;1.83;;
74100;SDS011;62462;52.530;21.682;2023-03-08T01:36:09;3.95;;;1.80;;
74100;SDS011;62462;52.530;21.682;2023-03-08T01:38:36;5.78;;;1.60;;
74100;SDS011;62462;52.530;21.682;2023-03-08T01:41:04;3.63;;;1.83;;
74100;SDS011;62462;52.530;21.682;2023-03-08T01:43:33;4.97;;;2.08;;
74100;SDS011;62462;52.530;21.682;2023-03-08T01:48:34;2.80;;;1.77;;
74100;SDS011;62462;52.530;21.682;2023-03-08T01:51:04;2.47;;;1.50;;
74100;SDS011;62462;52.530;21.682;2023-03-08T01:53:32;5.07;;;1.97;;
74100;SDS011;62462;52.530;21.682;2023-03-08T01:55:59;3.78;;;1.80;;
74100;SDS011;62462;52.530;21.682;2023-03-08T01:58:26;3.25;;;1.80;;
74100;SDS011;62462;52.530;21.682;2023-03-08T02:00:51;8.07;;;1.63;;
74100;SDS011;62462;52.530;21.682;2023-03-08T02:03:17;4.20;;;1.80;;
74100;SDS011;62462;52.530;21.682;2023-03-08T02:05:43;5.57;;;1.70;;
74100;SDS011;62462;52.530;21.682;2023-03-08T02:08:09;4.03;;;1.70;;
74100;SDS011;62462;52.530;21.682;2023-03-08T02:10:35;3.78;;;2.28;;
74100;SDS011;62462;52.530;21.682;2023-03-08T02:13:02;5.28;;;1.55;;
74100;SDS011;62462;52.530;21.682;2023-03-08T02:15:30;3.22;;;1.55;;
74100;SDS011;62462;52.530;21.682;2023-03-08T02:17:56;4.78;;;1.80;;
74100;SDS011;62462;52.530;21.682;2023-03-08T02:20:32;6.55;;;1.85;;
74100;SDS011;62462;52.530;21.682;2023-03-08T02:23:06;3.40;;;1.50;;
74100;SDS011;62462;52.530;21.682;2023-03-08T02:26:03;4.20;;;1.50;;
74100;SDS011;62462;52.530;21.682;2023-03-08T02:28:28;4.22;;;2.00;;
74100;SDS011;62462;52.530;21.682;2023-03-08T02:30:55;3.08;;;1.67;;
74100;SDS011;62462;52.530;21.682;2023-03-08T02:33:21;4.67;;;1.80;;
74100;SDS011;62462;52.530;21.682;2023-03-08T02:35:48;4.73;;;1.97;;
74100;SDS011;62462;52.530;21.682;2023-03-08T02:38:15;7.15;;;2.10;;
74100;SDS011;62462;52.530;21.682;2023-03-08T02:40:42;5.65;;;1.85;;
74100;SDS011;62462;52.530;21.682;2023-03-08T02:43:08;4.88;;;2.20;;
74100;SDS011;62462;52.530;21.682;2023-03-08T02:45:34;5.57;;;2.40;;
74100;SDS011;62462;52.530;21.682;2023-03-08T02:48:01;7.13;;;2.63;;
74100;SDS011;62462;52.530;21.682;2023-03-08T02:50:30;6.20;;;2.53;;
74100;SDS011;62462;52.530;21.682;2023-03-08T02:52:56;5.15;;;2.40;;
74100;SDS011;62462;52.530;21.682;2023-03-08T02:55:22;4.70;;;2.20;;
74100;SDS011;62462;52.530;21.682;2023-03-08T02:57:48;5.38;;;2.47;;
74100;SDS011;62462;52.530;21.682;2023-03-08T03:00:14;6.13;;;2.75;;
74100;SDS011;62462;52.530;21.682;2023-03-08T03:02:40;6.03;;;2.90;;
74100;SDS011;62462;52.530;21.682;2023-03-08T03:05:07;5.83;;;2.73;;
74100;SDS011;62462;52.530;21.682;2023-03-08T03:07:37;8.17;;;2.90;;
74100;SDS011;62462;52.530;21.682;2023-03-08T03:10:04;7.40;;;3.40;;
74100;SDS011;62462;52.530;21.682;2023-03-08T03:12:31;6.57;;;3.53;;
74100;SDS011;62462;52.530;21.682;2023-03-08T03:14:57;7.43;;;3.20;;
74100;SDS011;62462;52.530;21.682;2023-03-08T03:17:22;6.40;;;2.93;;
74100;SDS011;62462;52.530;21.682;2023-03-08T03:19:48;4.93;;;2.85;;
74100;SDS011;62462;52.530;21.682;2023-03-08T03:22:14;7.63;;;3.83;;
74100;SDS011;62462;52.530;21.682;2023-03-08T03:24:40;4.50;;;2.90;;
74100;SDS011;62462;52.530;21.682;2023-03-08T03:27:05;7.23;;;3.20;;
74100;SDS011;62462;52.530;21.682;2023-03-08T03:29:31;6.57;;;3.00;;
74100;SDS011;62462;52.530;21.682;2023-03-08T03:31:57;5.37;;;3.03;;
74100;SDS011;62462;52.530;21.682;2023-03-08T03:34:22;6.87;;;3.13;;
74100;SDS011;62462;52.530;21.682;2023-03-08T03:36:48;4.93;;;2.70;;
74100;SDS011;62462;52.530;21.682;2023-03-08T03:39:14;9.07;;;3.33;;
74100;SDS011;62462;52.530;21.682;2023-03-08T03:41:40;6.00;;;3.10;;
74100;SDS011;62462;52.530;21.682;2023-03-08T03:44:06;9.47;;;3.60;;
74100;SDS011;62462;52.530;21.682;2023-03-08T03:46:31;4.40;;;2.73;;
74100;SDS011;62462;52.530;21.682;2023-03-08T03:48:57;6.03;;;3.10;;
74100;SDS011;62462;52.530;21.682;2023-03-08T03:51:23;8.90;;;3.30;;
74100;SDS011;62462;52.530;21.682;2023-03-08T03:53:48;5.97;;;3.37;;
74100;SDS011;62462;52.530;21.682;2023-03-08T03:58:40;7.60;;;2.77;;
74100;SDS011;62462;52.530;21.682;2023-03-08T04:01:07;4.20;;;2.83;;
74100;SDS011;62462;52.530;21.682;2023-03-08T04:03:52;6.80;;;2.83;;
74100;SDS011;62462;52.530;21.682;2023-03-08T04:06:20;7.37;;;2.90;;
74100;SDS011;62462;52.530;21.682;2023-03-08T04:08:46;6.20;;;3.60;;
74100;SDS011;62462;52.530;21.682;2023-03-08T04:11:13;6.73;;;3.80;;
74100;SDS011;62462;52.530;21.682;2023-03-08T04:13:42;7.07;;;3.33;;
74100;SDS011;62462;52.530;21.682;2023-03-08T04:16:15;6.83;;;3.80;;
74100;SDS011;62462;52.530;21.682;2023-03-08T04:18:41;5.93;;;3.20;;
74100;SDS011;62462;52.530;21.682;2023-03-08T04:21:08;7.47;;;3.50;;
74100;SDS011;62462;52.530;21.682;2023-03-08T04:23:34;7.73;;;3.87;;
74100;SDS011;62462;52.530;21.682;2023-03-08T04:26:00;5.83;;;3.97;;
74100;SDS011;62462;52.530;21.682;2023-03-08T04:28:26;8.67;;;4.13;;
74100;SDS011;62462;52.530;21.682;2023-03-08T04:30:52;6.27;;;3.70;;
74100;SDS011;62462;52.530;21.682;2023-03-08T04:33:18;5.83;;;4.03;;
74100;SDS011;62462;52.530;21.682;2023-03-08T04:35:44;8.40;;;4.40;;
74100;SDS011;62462;52.530;21.682;2023-03-08T04:38:10;7.33;;;4.30;;
74100;SDS011;62462;52.530;21.682;2023-03-08T04:40:36;7.63;;;4.67;;
74100;SDS011;62462;52.530;21.682;2023-03-08T04:43:22;6.60;;;4.20;;
74100;SDS011;62462;52.530;21.682;2023-03-08T04:45:48;9.30;;;4.47;;
74100;SDS011;62462;52.530;21.682;2023-03-08T04:48:13;8.53;;;5.03;;
74100;SDS011;62462;52.530;21.682;2023-03-08T04:50:39;8.30;;;4.87;;
74100;SDS011;62462;52.530;21.682;2023-03-08T04:53:05;8.57;;;4.30;;
74100;SDS011;62462;52.530;21.682;2023-03-08T04:55:32;7.93;;;5.10;;
74100;SDS011;62462;52.530;21.682;2023-03-08T04:57:58;9.37;;;4.80;;
74100;SDS011;62462;52.530;21.682;2023-03-08T05:00:24;8.60;;;5.00;;
74100;SDS011;62462;52.530;21.682;2023-03-08T05:02:50;8.20;;;5.30;;
74100;SDS011;62462;52.530;21.682;2023-03-08T05:05:15;13.37;;;5.73;;
74100;SDS011;62462;52.530;21.682;2023-03-08T05:07:41;8.57;;;5.50;;
74100;SDS011;62462;52.530;21.682;2023-03-08T05:10:07;11.57;;;5.70;;
74100;SDS011;62462;52.530;21.682;2023-03-08T05:12:33;9.67;;;6.10;;
74100;SDS011;62462;52.530;21.682;2023-03-08T05:14:59;10.33;;;6.33;;
74100;SDS011;62462;52.530;21.682;2023-03-08T05:17:24;9.60;;;6.10;;
74100;SDS011;62462;52.530;21.682;2023-03-08T05:19:50;9.97;;;6.50;;
74100;SDS011;62462;52.530;21.682;2023-03-08T05:22:16;13.90;;;5.97;;
74100;SDS011;62462;52.530;21.682;2023-03-08T05:24:41;10.63;;;6.60;;
74100;SDS011;62462;52.530;21.682;2023-03-08T05:27:07;12.77;;;6.90;;
74100;SDS011;62462;52.530;21.682;2023-03-08T05:29:33;11.40;;;7.03;;
74100;SDS011;62462;52.530;21.682;2023-03-08T05:32:01;12.10;;;6.80;;
74100;SDS011;62462;52.530;21.682;2023-03-08T05:34:27;16.70;;;7.83;;
74100;SDS011;62462;52.530;21.682;2023-03-08T05:36:53;13.13;;;7.40;;
74100;SDS011;62462;52.530;21.682;2023-03-08T05:39:19;11.87;;;7.33;;
74100;SDS011;62462;52.530;21.682;2023-03-08T05:41:45;15.23;;;7.40;;
74100;SDS011;62462;52.530;21.682;2023-03-08T05:44:11;14.90;;;7.30;;
74100;SDS011;62462;52.530;21.682;2023-03-08T05:46:37;15.73;;;7.87;;
74100;SDS011;62462;52.530;21.682;2023-03-08T05:49:03;13.27;;;7.17;;
74100;SDS011;62462;52.530;21.682;2023-03-08T05:51:29;15.40;;;7.60;;
74100;SDS011;62462;52.530;21.682;2023-03-08T05:53:55;17.13;;;8.33;;
74100;SDS011;62462;52.530;21.682;2023-03-08T05:56:21;16.77;;;8.93;;
74100;SDS011;62462;52.530;21.682;2023-03-08T05:58:48;15.47;;;7.47;;
74100;SDS011;62462;52.530;21.682;2023-03-08T06:01:15;16.37;;;8.73;;
74100;SDS011;62462;52.530;21.682;2023-03-08T06:03:50;14.57;;;8.73;;
74100;SDS011;62462;52.530;21.682;2023-03-08T06:06:18;15.83;;;9.20;;
74100;SDS011;62462;52.530;21.682;2023-03-08T06:08:45;16.67;;;8.10;;
74100;SDS011;62462;52.530;21.682;2023-03-08T06:11:11;15.17;;;8.10;;
74100;SDS011;62462;52.530;21.682;2023-03-08T06:13:37;14.77;;;8.40;;
74100;SDS011;62462;52.530;21.682;2023-03-08T06:16:03;14.07;;;8.17;;
74100;SDS011;62462;52.530;21.682;2023-03-08T06:18:29;15.00;;;7.93;;
74100;SDS011;62462;52.530;21.682;2023-03-08T06:20:59;14.57;;;8.23;;
74100;SDS011;62462;52.530;21.682;2023-03-08T06:25:56;16.67;;;8.57;;
74100;SDS011;62462;52.530;21.682;2023-03-08T06:28:22;17.63;;;8.80;;
74100;SDS011;62462;52.530;21.682;2023-03-08T06:30:48;13.77;;;8.10;;
74100;SDS011;62462;52.530;21.682;2023-03-08T06:33:18;20.37;;;8.57;;
74100;SDS011;62462;52.530;21.682;2023-03-08T06:35:55;15.70;;;8.63;;
74100;SDS011;62462;52.530;21.682;2023-03-08T06:38:23;14.83;;;7.93;;
74100;SDS011;62462;52.530;21.682;2023-03-08T06:40:50;16.30;;;9.57;;
74100;SDS011;62462;52.530;21.682;2023-03-08T06:43:16;17.53;;;9.27;;
74100;SDS011;62462;52.530;21.682;2023-03-08T06:45:42;16.87;;;9.10;;
74100;SDS011;62462;52.530;21.682;2023-03-08T06:48:07;13.83;;;8.87;;
74100;SDS011;62462;52.530;21.682;2023-03-08T06:50:33;14.83;;;8.07;;
74100;SDS011;62462;52.530;21.682;2023-03-08T06:52:59;16.63;;;8.43;;
74100;SDS011;62462;52.530;21.682;2023-03-08T06:55:25;12.53;;;8.20;;
74100;SDS011;62462;52.530;21.682;2023-03-08T06:57:51;13.53;;;7.97;;
74100;SDS011;62462;52.530;21.682;2023-03-08T07:00:17;17.23;;;8.70;;
74100;SDS011;62462;52.530;21.682;2023-03-08T07:02:43;17.10;;;7.83;;
74100;SDS011;62462;52.530;21.682;2023-03-08T07:05:09;13.27;;;7.33;;
74100;SDS011;62462;52.530;21.682;2023-03-08T07:07:35;11.37;;;6.60;;
74100;SDS011;62462;52.530;21.682;2023-03-08T07:10:01;13.85;;;7.60;;
74100;SDS011;62462;52.530;21.682;2023-03-08T07:12:27;12.53;;;6.77;;
74100;SDS011;62462;52.530;21.682;2023-03-08T07:14:56;14.37;;;6.80;;
74100;SDS011;62462;52.530;21.682;2023-03-08T07:17:23;11.48;;;5.72;;
74100;SDS011;62462;52.530;21.682;2023-03-08T07:19:49;12.57;;;6.63;;
74100;SDS011;62462;52.530;21.682;2023-03-08T07:22:14;12.13;;;5.87;;
74100;SDS011;62462;52.530;21.682;2023-03-08T07:24:40;11.37;;;6.33;;
74100;SDS011;62462;52.530;21.682;2023-03-08T07:27:06;12.73;;;5.87;;
74100;SDS011;62462;52.530;21.682;2023-03-08T07:29:32;10.23;;;5.20;;
74100;SDS011;62462;52.530;21.682;2023-03-08T07:31:57;11.03;;;5.87;;
74100;SDS011;62462;52.530;21.682;2023-03-08T07:34:23;13.83;;;5.60;;
74100;SDS011;62462;52.530;21.682;2023-03-08T07:36:50;12.35;;;6.85;;
74100;SDS011;62462;52.530;21.682;2023-03-08T07:39:16;12.50;;;6.00;;
74100;SDS011;62462;52.530;21.682;2023-03-08T07:41:42;12.55;;;5.60;;
74100;SDS011;62462;52.530;21.682;2023-03-08T07:44:07;13.18;;;6.22;;
74100;SDS011;62462;52.530;21.682;2023-03-08T07:46:33;11.90;;;5.40;;
74100;SDS011;62462;52.530;21.682;2023-03-08T07:48:59;9.95;;;4.95;;
74100;SDS011;62462;52.530;21.682;2023-03-08T07:51:25;11.85;;;5.97;;
74100;SDS011;62462;52.530;21.682;2023-03-08T07:53:51;12.85;;;5.25;;
74100;SDS011;62462;52.530;21.682;2023-03-08T07:56:17;10.98;;;5.65;;
74100;SDS011;62462;52.530;21.682;2023-03-08T07:58:43;10.27;;;5.47;;
74100;SDS011;62462;52.530;21.682;2023-03-08T08:01:09;12.02;;;5.43;;
74100;SDS011;62462;52.530;21.682;2023-03-08T08:03:36;11.98;;;5.47;;
74100;SDS011;62462;52.530;21.682;2023-03-08T08:06:03;9.82;;;5.40;;
74100;SDS011;62462;52.530;21.682;2023-03-08T08:08:29;9.38;;;4.55;;
74100;SDS011;62462;52.530;21.682;2023-03-08T08:10:55;9.98;;;4.13;;
74100;SDS011;62462;52.530;21.682;2023-03-08T08:13:21;7.18;;;4.00;;
74100;SDS011;62462;52.530;21.682;2023-03-08T08:15:55;7.80;;;4.63;;
74100;SDS011;62462;52.530;21.682;2023-03-08T08:18:22;6.10;;;3.85;;
74100;SDS011;62462;52.530;21.682;2023-03-08T08:20:48;7.13;;;3.92;;
74100;SDS011;62462;52.530;21.682;2023-03-08T08:23:13;4.25;;;2.75;;
74100;SDS011;62462;52.530;21.682;2023-03-08T08:25:39;4.88;;;2.88;;
74100;SDS011;62462;52.530;21.682;2023-03-08T08:28:05;7.25;;;3.20;;
74100;SDS011;62462;52.530;21.682;2023-03-08T08:30:30;6.55;;;3.10;;
74100;SDS011;62462;52.530;21.682;2023-03-08T08:32:56;5.88;;;3.30;;
74100;SDS011;62462;52.530;21.682;2023-03-08T08:35:25;5.60;;;3.33;;
74100;SDS011;62462;52.530;21.682;2023-03-08T08:37:50;5.95;;;3.10;;
74100;SDS011;62462;52.530;21.682;2023-03-08T08:40:16;7.43;;;3.22;;
74100;SDS011;62462;52.530;21.682;2023-03-08T08:42:42;5.57;;;2.90;;
74100;SDS011;62462;52.530;21.682;2023-03-08T08:45:08;5.75;;;2.90;;
74100;SDS011;62462;52.530;21.682;2023-03-08T08:47:34;7.30;;;3.38;;
74100;SDS011;62462;52.530;21.682;2023-03-08T08:49:59;4.70;;;2.38;;
74100;SDS011;62462;52.530;21.682;2023-03-08T08:52:25;3.78;;;2.42;;
74100;SDS011;62462;52.530;21.682;2023-03-08T08:54:51;4.80;;;2.35;;
74100;SDS011;62462;52.530;21.682;2023-03-08T08:57:17;4.13;;;2.65;;
74100;SDS011;62462;52.530;21.682;2023-03-08T08:59:43;5.03;;;2.78;;
74100;SDS011;62462;52.530;21.682;2023-03-08T09:02:09;5.45;;;2.95;;
74100;SDS011;62462;52.530;21.682;2023-03-08T09:04:38;5.72;;;2.80;;
74100;SDS011;62462;52.530;21.682;2023-03-08T09:07:04;7.30;;;2.60;;
74100;SDS011;62462;52.530;21.682;2023-03-08T09:09:31;4.35;;;2.60;;
74100;SDS011;62462;52.530;21.682;2023-03-08T09:11:57;5.93;;;2.70;;
74100;SDS011;62462;52.530;21.682;2023-03-08T09:14:23;5.38;;;2.45;;
74100;SDS011;62462;52.530;21.682;2023-03-08T09:16:49;4.55;;;2.70;;
74100;SDS011;62462;52.530;21.682;2023-03-08T09:19:16;4.72;;;2.35;;
74100;SDS011;62462;52.530;21.682;2023-03-08T09:21:42;7.88;;;3.13;;
74100;SDS011;62462;52.530;21.682;2023-03-08T09:24:09;6.13;;;2.70;;
74100;SDS011;62462;52.530;21.682;2023-03-08T09:26:36;5.15;;;2.55;;
74100;SDS011;62462;52.530;21.682;2023-03-08T09:29:02;5.35;;;2.70;;
74100;SDS011;62462;52.530;21.682;2023-03-08T09:31:29;7.05;;;2.45;;
74100;SDS011;62462;52.530;21.682;2023-03-08T09:33:56;6.68;;;2.47;;
74100;SDS011;62462;52.530;21.682;2023-03-08T09:36:22;6.18;;;2.53;;
74100;SDS011;62462;52.530;21.682;2023-03-08T09:38:48;6.25;;;2.03;;
74100;SDS011;62462;52.530;21.682;2023-03-08T09:49:35;6.07;;;2.53;;
74100;SDS011;62462;52.530;21.682;2023-03-08T09:54:54;4.82;;;2.05;;
74100;SDS011;62462;52.530;21.682;2023-03-08T09:57:23;3.97;;;1.95;;
74100;SDS011;62462;52.530;21.682;2023-03-08T09:59:53;3.30;;;1.73;;
74100;SDS011;62462;52.530;21.682;2023-03-08T10:05:29;7.05;;;2.10;;
74100;SDS011;62462;52.530;21.682;2023-03-08T10:08:05;4.50;;;1.92;;
74100;SDS011;62462;52.530;21.682;2023-03-08T10:13:40;5.20;;;1.85;;
74100;SDS011;62462;52.530;21.682;2023-03-08T10:16:21;3.78;;;1.58;;
74100;SDS011;62462;52.530;21.682;2023-03-08T10:21:28;4.78;;;1.88;;
74100;SDS011;62462;52.530;21.682;2023-03-08T10:24:40;6.85;;;2.55;;
74100;SDS011;62462;52.530;21.682;2023-03-08T10:27:05;3.95;;;2.03;;
74100;SDS011;62462;52.530;21.682;2023-03-08T10:29:48;4.35;;;1.60;;
74100;SDS011;62462;52.530;21.682;2023-03-08T10:32:19;4.13;;;1.77;;
74100;SDS011;62462;52.530;21.682;2023-03-08T10:34:45;5.95;;;2.33;;
74100;SDS011;62462;52.530;21.682;2023-03-08T10:37:11;6.95;;;2.95;;
74100;SDS011;62462;52.530;21.682;2023-03-08T10:39:48;7.32;;;1.95;;
74100;SDS011;62462;52.530;21.682;2023-03-08T10:42:20;3.88;;;1.80;;
74100;SDS011;62462;52.530;21.682;2023-03-08T10:52:42;22.98;;;11.32;;
74100;SDS011;62462;52.530;21.682;2023-03-08T10:55:10;4.82;;;1.83;;
74100;SDS011;62462;52.530;21.682;2023-03-08T10:57:47;3.38;;;1.85;;
74100;SDS011;62462;52.530;21.682;2023-03-08T11:02:44;3.85;;;1.52;;
74100;SDS011;62462;52.530;21.682;2023-03-08T11:05:18;5.57;;;1.85;;
74100;SDS011;62462;52.530;21.682;2023-03-08T11:07:53;4.72;;;1.80;;
74100;SDS011;62462;52.530;21.682;2023-03-08T11:10:22;3.75;;;1.60;;
74100;SDS011;62462;52.530;21.682;2023-03-08T11:16:01;4.75;;;1.50;;
74100;SDS011;62462;52.530;21.682;2023-03-08T11:40:23;3.67;;;1.45;;
74100;SDS011;62462;52.530;21.682;2023-03-08T11:45:39;4.07;;;1.65;;
74100;SDS011;62462;52.530;21.682;2023-03-08T12:03:51;3.55;;;1.42;;
74100;SDS011;62462;52.530;21.682;2023-03-08T12:06:24;4.85;;;1.70;;
74100;SDS011;62462;52.530;21.682;2023-03-08T12:11:43;2.78;;;1.23;;
74100;SDS011;62462;52.530;21.682;2023-03-08T12:14:20;4.88;;;2.05;;
74100;SDS011;62462;52.530;21.682;2023-03-08T12:16:51;4.47;;;2.17;;
74100;SDS011;62462;52.530;21.682;2023-03-08T12:19:41;3.67;;;1.60;;
74100;SDS011;62462;52.530;21.682;2023-03-08T12:22:16;3.67;;;1.48;;
74100;SDS011;62462;52.530;21.682;2023-03-08T12:27:50;2.80;;;1.58;;
74100;SDS011;62462;52.530;21.682;2023-03-08T12:33:04;5.18;;;2.55;;
74100;SDS011;62462;52.530;21.682;2023-03-08T12:35:32;6.10;;;1.73;;
74100;SDS011;62462;52.530;21.682;2023-03-08T12:40:41;4.03;;;1.63;;
74100;SDS011;62462;52.530;21.682;2023-03-08T12:45:46;3.03;;;1.50;;
74100;SDS011;62462;52.530;21.682;2023-03-08T12:58:54;4.47;;;1.60;;
74100;SDS011;62462;52.530;21.682;2023-03-08T13:01:43;4.20;;;1.63;;
74100;SDS011;62462;52.530;21.682;2023-03-08T13:04:27;3.60;;;1.77;;
74100;SDS011;62462;52.530;21.682;2023-03-08T13:09:35;2.60;;;1.38;;
74100;SDS011;62462;52.530;21.682;2023-03-08T13:21:17;5.18;;;1.60;;
74100;SDS011;62462;52.530;21.682;2023-03-08T13:28:20;5.22;;;1.80;;
74100;SDS011;62462;52.530;21.682;2023-03-08T13:30:52;6.28;;;2.53;;
74100;SDS011;62462;52.530;21.682;2023-03-08T13:33:21;5.40;;;1.98;;
74100;SDS011;62462;52.530;21.682;2023-03-08T13:35:57;4.32;;;1.70;;
74100;SDS011;62462;52.530;21.682;2023-03-08T13:38:25;4.22;;;2.05;;
74100;SDS011;62462;52.530;21.682;2023-03-08T13:40:58;5.15;;;1.80;;
74100;SDS011;62462;52.530;21.682;2023-03-08T13:43:28;2.75;;;1.40;;
74100;SDS011;62462;52.530;21.682;2023-03-08T13:45:58;2.90;;;1.80;;
74100;SDS011;62462;52.530;21.682;2023-03-08T13:48:33;5.70;;;1.95;;
74100;SDS011;62462;52.530;21.682;2023-03-08T13:51:00;3.55;;;1.80;;
74100;SDS011;62462;52.530;21.682;2023-03-08T13:53:27;3.88;;;1.88;;
74100;SDS011;62462;52.530;21.682;2023-03-08T13:56:00;4.60;;;1.80;;
74100;SDS011;62462;52.530;21.682;2023-03-08T13:58:40;5.47;;;1.85;;
74100;SDS011;62462;52.530;21.682;2023-03-08T14:01:11;5.35;;;1.90;;
74100;SDS011;62462;52.530;21.682;2023-03-08T14:03:39;5.07;;;1.60;;
74100;SDS011;62462;52.530;21.682;2023-03-08T14:08:45;3.70;;;1.58;;
74100;SDS011;62462;52.530;21.682;2023-03-08T14:11:19;3.15;;;1.70;;
74100;SDS011;62462;52.530;21.682;2023-03-08T14:13:51;3.15;;;1.75;;
74100;SDS011;62462;52.530;21.682;2023-03-08T14:16:32;3.60;;;1.58;;
74100;SDS011;62462;52.530;21.682;2023-03-08T14:19:08;3.67;;;1.67;;
74100;SDS011;62462;52.530;21.682;2023-03-08T14:22:16;4.10;;;1.70;;
74100;SDS011;62462;52.530;21.682;2023-03-08T14:24:41;5.78;;;1.83;;
74100;SDS011;62462;52.530;21.682;2023-03-08T14:29:38;7.43;;;2.15;;
74100;SDS011;62462;52.530;21.682;2023-03-08T14:34:42;4.47;;;1.77;;
74100;SDS011;62462;52.530;21.682;2023-03-08T14:37:21;5.85;;;1.80;;
74100;SDS011;62462;52.530;21.682;2023-03-08T14:39:50;3.10;;;1.88;;
74100;SDS011;62462;52.530;21.682;2023-03-08T14:43:22;3.67;;;2.00;;
74100;SDS011;62462;52.530;21.682;2023-03-08T14:45:37;5.15;;;1.98;;
74100;SDS011;62462;52.530;21.682;2023-03-08T14:50:57;4.15;;;2.17;;
74100;SDS011;62462;52.530;21.682;2023-03-08T14:55:56;3.25;;;2.03;;
74100;SDS011;62462;52.530;21.682;2023-03-08T14:58:30;6.30;;;2.10;;
74100;SDS011;62462;52.530;21.682;2023-03-08T15:00:59;4.50;;;2.00;;
74100;SDS011;62462;52.530;21.682;2023-03-08T15:03:27;5.65;;;2.40;;
74100;SDS011;62462;52.530;21.682;2023-03-08T15:05:54;5.10;;;2.30;;
74100;SDS011;62462;52.530;21.682;2023-03-08T15:08:20;5.82;;;2.05;;
74100;SDS011;62462;52.530;21.682;2023-03-08T15:10:47;5.03;;;2.13;;
74100;SDS011;62462;52.530;21.682;2023-03-08T15:13:15;4.95;;;2.20;;
74100;SDS011;62462;52.530;21.682;2023-03-08T15:15:45;5.13;;;2.80;;
74100;SDS011;62462;52.530;21.682;2023-03-08T15:18:12;5.90;;;2.67;;
74100;SDS011;62462;52.530;21.682;2023-03-08T15:20:38;8.73;;;2.53;;
74100;SDS011;62462;52.530;21.682;2023-03-08T15:23:18;6.15;;;2.50;;
74100;SDS011;62462;52.530;21.682;2023-03-08T15:25:49;4.72;;;2.35;;
74100;SDS011;62462;52.530;21.682;2023-03-08T15:28:16;5.35;;;2.50;;
74100;SDS011;62462;52.530;21.682;2023-03-08T15:30:43;24.58;;;11.52;;
74100;SDS011;62462;52.530;21.682;2023-03-08T15:33:09;8.60;;;3.95;;
74100;SDS011;62462;52.530;21.682;2023-03-08T15:35:36;4.32;;;1.90;;
74100;SDS011;62462;52.530;21.682;2023-03-08T15:38:02;5.68;;;2.67;;
74100;SDS011;62462;52.530;21.682;2023-03-08T15:40:29;15.82;;;7.05;;
74100;SDS011;62462;52.530;21.682;2023-03-08T15:42:55;7.50;;;2.58;;
74100;SDS011;62462;52.530;21.682;2023-03-08T15:45:22;4.97;;;2.30;;
74100;SDS011;62462;52.530;21.682;2023-03-08T15:47:55;5.78;;;2.22;;
74100;SDS011;62462;52.530;21.682;2023-03-08T15:50:21;5.40;;;2.10;;
74100;SDS011;62462;52.530;21.682;2023-03-08T15:52:46;7.10;;;2.15;;
74100;SDS011;62462;52.530;21.682;2023-03-08T15:55:12;3.30;;;1.83;;
74100;SDS011;62462;52.530;21.682;2023-03-08T15:57:39;5.57;;;2.53;;
74100;SDS011;62462;52.530;21.682;2023-03-08T16:00:06;7.03;;;2.30;;
74100;SDS011;62462;52.530;21.682;2023-03-08T16:02:33;8.45;;;3.90;;
74100;SDS011;62462;52.530;21.682;2023-03-08T16:05:00;13.00;;;6.20;;
74100;SDS011;62462;52.530;21.682;2023-03-08T16:07:26;11.23;;;4.30;;
74100;SDS011;62462;52.530;21.682;2023-03-08T16:09:52;7.35;;;3.05;;
74100;SDS011;62462;52.530;21.682;2023-03-08T16:12:18;5.53;;;3.25;;
74100;SDS011;62462;52.530;21.682;2023-03-08T16:14:44;9.65;;;3.60;;
74100;SDS011;62462;52.530;21.682;2023-03-08T16:17:14;7.45;;;3.15;;
74100;SDS011;62462;52.530;21.682;2023-03-08T16:19:40;7.53;;;2.92;;
74100;SDS011;62462;52.530;21.682;2023-03-08T16:22:06;6.13;;;3.13;;
74100;SDS011;62462;52.530;21.682;2023-03-08T16:24:32;6.72;;;3.22;;
74100;SDS011;62462;52.530;21.682;2023-03-08T16:26:58;8.00;;;4.15;;
74100;SDS011;62462;52.530;21.682;2023-03-08T16:29:24;6.40;;;3.08;;
74100;SDS011;62462;52.530;21.682;2023-03-08T16:31:50;5.78;;;3.00;;
74100;SDS011;62462;52.530;21.682;2023-03-08T16:34:17;7.75;;;2.92;;
74100;SDS011;62462;52.530;21.682;2023-03-08T16:36:43;7.93;;;3.05;;
74100;SDS011;62462;52.530;21.682;2023-03-08T16:39:09;6.13;;;2.65;;
74100;SDS011;62462;52.530;21.682;2023-03-08T16:41:36;5.00;;;2.67;;
74100;SDS011;62462;52.530;21.682;2023-03-08T16:44:03;4.05;;;2.30;;
74100;SDS011;62462;52.530;21.682;2023-03-08T16:46:30;7.70;;;2.75;;
74100;SDS011;62462;52.530;21.682;2023-03-08T16:48:56;6.82;;;2.67;;
74100;SDS011;62462;52.530;21.682;2023-03-08T16:51:23;6.15;;;2.72;;